sensor_id;sensor_type;location;lat;lon;timestamp;pressure;altitude;pressure_sealevel;temperature;humidity
59487;BME280;45298;54.918;73.504;2023-05-11T00:01:05;100192.47;;;5.93;90.42
59487;BME280;45298;54.918;73.504;2023-05-11T00:03:34;100186.50;;;5.88;90.68
59487;BME280;45298;54.918;73.504;2023-05-11T00:06:03;100208.00;;;5.99;90.61
59487;BME280;45298;54.918;73.504;2023-05-11T00:08:32;100171.63;;;5.87;90.74
59487;BME280;45298;54.918;73.504;2023-05-11T00:11:01;100171.63;;;5.87;90.78
59487;BME280;45298;54.918;73.504;2023-05-11T00:13:30;100171.53;;;5.90;91.15
59487;BME280;45298;54.918;73.504;2023-05-11T00:15:59;100157.78;;;5.82;91.00
59487;BME280;45298;54.918;73.504;2023-05-11T00:18:28;100176.78;;;5.90;90.89
59487;BME280;45298;54.918;73.504;2023-05-11T00:20:57;100131.88;;;5.72;91.14
59487;BME280;45298;54.918;73.504;2023-05-11T00:23:26;100166.38;;;5.87;91.57
59487;BME280;45298;54.918;73.504;2023-05-11T00:25:55;100142.00;;;5.82;91.28
59487;BME280;45298;54.918;73.504;2023-05-11T00:28:24;100131.78;;;5.74;91.31
59487;BME280;45298;54.918;73.504;2023-05-11T00:30:56;100129.91;;;5.78;91.61
59487;BME280;45298;54.918;73.504;2023-05-11T00:33:25;100155.72;;;5.90;91.95
59487;BME280;45298;54.918;73.504;2023-05-11T00:35:54;100102.25;;;5.67;91.54
59487;BME280;45298;54.918;73.504;2023-05-11T00:38:23;100114.38;;;5.71;91.85
59487;BME280;45298;54.918;73.504;2023-05-11T00:40:52;100130.44;;;5.86;91.66
59487;BME280;45298;54.918;73.504;2023-05-11T00:43:20;100092.75;;;5.63;92.14
59487;BME280;45298;54.918;73.504;2023-05-11T00:45:49;100108.22;;;5.71;91.72
59487;BME280;45298;54.918;73.504;2023-05-11T00:48:20;100097.84;;;5.68;91.71
59487;BME280;45298;54.918;73.504;2023-05-11T00:50:49;100000.97;;;5.12;91.49
59487;BME280;45298;54.918;73.504;2023-05-11T00:53:18;100122.63;;;5.84;91.86
59487;BME280;45298;54.918;73.504;2023-05-11T00:55:47;100084.75;;;5.66;91.58
59487;BME280;45298;54.918;73.504;2023-05-11T00:58:16;100117.59;;;5.78;92.18
59487;BME280;45298;54.918;73.504;2023-05-11T01:00:45;100076.91;;;5.65;92.18
59487;BME280;45298;54.918;73.504;2023-05-11T01:03:17;100089.88;;;5.69;92.20
59487;BME280;45298;54.918;73.504;2023-05-11T01:06:01;100122.53;;;5.86;92.46
59487;BME280;45298;54.918;73.504;2023-05-11T01:08:44;100109.56;;;5.81;92.15
59487;BME280;45298;54.918;73.504;2023-05-11T01:14:05;100088.16;;;5.68;92.14
59487;BME280;45298;54.918;73.504;2023-05-11T01:16:37;100071.81;;;5.60;92.41
59487;BME280;45298;54.918;73.504;2023-05-11T01:19:17;100112.13;;;5.83;92.78
59487;BME280;45298;54.918;73.504;2023-05-11T01:21:49;100086.34;;;5.70;92.35
59487;BME280;45298;54.918;73.504;2023-05-11T01:27:30;100107.66;;;5.85;92.48
59487;BME280;45298;54.918;73.504;2023-05-11T01:32:46;100076.00;;;5.66;92.13
59487;BME280;45298;54.918;73.504;2023-05-11T01:35:21;100033.13;;;5.41;92.01
59487;BME280;45298;54.918;73.504;2023-05-11T01:37:51;100081.66;;;5.77;92.46
59487;BME280;45298;54.918;73.504;2023-05-11T01:40:25;100077.28;;;5.78;92.33
59487;BME280;45298;54.918;73.504;2023-05-11T01:43:00;100060.06;;;5.69;92.06
59487;BME280;45298;54.918;73.504;2023-05-11T01:45:35;100082.06;;;5.88;92.34
59487;BME280;45298;54.918;73.504;2023-05-11T01:48:10;100068.31;;;5.82;92.22
59487;BME280;45298;54.918;73.504;2023-05-11T01:50:41;100083.00;;;5.87;92.22
59487;BME280;45298;54.918;73.504;2023-05-11T01:53:14;100054.97;;;5.86;91.87
59487;BME280;45298;54.918;73.504;2023-05-11T01:55:45;100054.09;;;5.86;91.72
59487;BME280;45298;54.918;73.504;2023-05-11T01:58:16;100027.78;;;5.86;91.73
59487;BME280;45298;54.918;73.504;2023-05-11T02:00:46;100035.41;;;5.92;91.94
59487;BME280;45298;54.918;73.504;2023-05-11T02:03:18;99965.97;;;5.53;91.99
59487;BME280;45298;54.918;73.504;2023-05-11T02:05:49;99972.00;;;5.57;91.58
59487;BME280;45298;54.918;73.504;2023-05-11T02:08:21;100017.19;;;5.87;91.46
59487;BME280;45298;54.918;73.504;2023-05-11T02:10:50;100018.03;;;5.88;91.45
59487;BME280;45298;54.918;73.504;2023-05-11T02:13:22;100022.38;;;5.89;91.56
59487;BME280;45298;54.918;73.504;2023-05-11T02:15:54;100009.22;;;5.89;91.33
59487;BME280;45298;54.918;73.504;2023-05-11T02:18:24;100035.00;;;6.03;91.29
59487;BME280;45298;54.918;73.504;2023-05-11T02:20:57;100014.91;;;6.00;91.43
59487;BME280;45298;54.918;73.504;2023-05-11T02:23:30;100012.25;;;6.00;91.28
59487;BME280;45298;54.918;73.504;2023-05-11T02:26:02;100030.19;;;6.13;91.00
59487;BME280;45298;54.918;73.504;2023-05-11T02:28:31;100018.19;;;6.05;91.12
59487;BME280;45298;54.918;73.504;2023-05-11T02:31:05;100052.75;;;6.18;90.89
59487;BME280;45298;54.918;73.504;2023-05-11T02:33:43;100041.88;;;6.05;90.34
59487;BME280;45298;54.918;73.504;2023-05-11T02:36:21;100016.13;;;5.92;90.38
59487;BME280;45298;54.918;73.504;2023-05-11T02:38:57;100038.88;;;6.15;90.43
59487;BME280;45298;54.918;73.504;2023-05-11T02:41:30;100038.09;;;6.13;90.45
59487;BME280;45298;54.918;73.504;2023-05-11T02:44:04;100048.53;;;6.14;89.83
59487;BME280;45298;54.918;73.504;2023-05-11T02:46:37;100050.97;;;6.19;90.01
59487;BME280;45298;54.918;73.504;2023-05-11T02:49:09;99968.91;;;5.68;89.92
59487;BME280;45298;54.918;73.504;2023-05-11T02:51:42;99981.72;;;5.75;89.76
59487;BME280;45298;54.918;73.504;2023-05-11T02:54:14;100039.91;;;6.11;89.58
59487;BME280;45298;54.918;73.504;2023-05-11T02:56:48;100032.16;;;6.08;89.46
59487;BME280;45298;54.918;73.504;2023-05-11T02:59:18;100028.50;;;6.10;89.61
59487;BME280;45298;54.918;73.504;2023-05-11T03:01:47;100020.03;;;6.03;89.52
59487;BME280;45298;54.918;73.504;2023-05-11T03:04:17;100050.03;;;6.20;89.45
59487;BME280;45298;54.918;73.504;2023-05-11T03:06:46;100031.75;;;6.17;89.45
59487;BME280;45298;54.918;73.504;2023-05-11T03:09:14;100028.19;;;6.18;88.96
59487;BME280;45298;54.918;73.504;2023-05-11T03:11:46;99983.22;;;5.81;88.59
59487;BME280;45298;54.918;73.504;2023-05-11T03:14:17;100056.88;;;6.24;88.65
59487;BME280;45298;54.918;73.504;2023-05-11T03:16:46;100026.09;;;6.05;88.36
59487;BME280;45298;54.918;73.504;2023-05-11T03:19:16;100052.66;;;6.20;88.66
59487;BME280;45298;54.918;73.504;2023-05-11T03:21:45;100035.16;;;6.19;88.37
59487;BME280;45298;54.918;73.504;2023-05-11T03:24:15;100017.84;;;6.13;88.40
59487;BME280;45298;54.918;73.504;2023-05-11T03:26:47;100033.91;;;6.28;88.14
59487;BME280;45298;54.918;73.504;2023-05-11T03:29:16;100051.16;;;6.35;88.34
59487;BME280;45298;54.918;73.504;2023-05-11T03:31:46;100061.28;;;6.44;88.29
59487;BME280;45298;54.918;73.504;2023-05-11T03:34:19;100038.59;;;6.21;87.72
59487;BME280;45298;54.918;73.504;2023-05-11T03:36:49;100046.88;;;6.32;87.72
59487;BME280;45298;54.918;73.504;2023-05-11T03:39:21;100066.69;;;6.41;87.87
59487;BME280;45298;54.918;73.504;2023-05-11T03:41:51;100052.03;;;6.35;87.36
59487;BME280;45298;54.918;73.504;2023-05-11T03:44:22;100057.22;;;6.37;87.12
59487;BME280;45298;54.918;73.504;2023-05-11T03:46:53;100077.81;;;6.48;87.64
59487;BME280;45298;54.918;73.504;2023-05-11T03:49:23;100062.25;;;6.42;87.42
59487;BME280;45298;54.918;73.504;2023-05-11T03:51:53;100046.44;;;6.42;87.40
59487;BME280;45298;54.918;73.504;2023-05-11T03:54:24;100015.16;;;6.15;87.23
59487;BME280;45298;54.918;73.504;2023-05-11T03:56:55;100040.41;;;6.40;87.06
59487;BME280;45298;54.918;73.504;2023-05-11T03:59:23;100063.44;;;6.55;87.27
59487;BME280;45298;54.918;73.504;2023-05-11T04:01:53;100042.53;;;6.50;87.10
59487;BME280;45298;54.918;73.504;2023-05-11T04:04:30;100046.63;;;6.58;86.96
59487;BME280;45298;54.918;73.504;2023-05-11T04:06:59;100062.59;;;6.74;86.81
59487;BME280;45298;54.918;73.504;2023-05-11T04:09:28;100050.50;;;6.70;86.71
59487;BME280;45298;54.918;73.504;2023-05-11T04:11:57;100050.97;;;6.78;86.39
59487;BME280;45298;54.918;73.504;2023-05-11T04:14:30;100054.13;;;6.86;86.60
59487;BME280;45298;54.918;73.504;2023-05-11T04:16:59;100041.88;;;6.85;86.96
59487;BME280;45298;54.918;73.504;2023-05-11T04:19:28;100063.44;;;7.13;86.67
59487;BME280;45298;54.918;73.504;2023-05-11T04:21:58;100039.28;;;7.03;86.28
59487;BME280;45298;54.918;73.504;2023-05-11T04:24:27;100070.69;;;7.26;86.00
59487;BME280;45298;54.918;73.504;2023-05-11T04:26:56;100068.84;;;7.29;86.12
59487;BME280;45298;54.918;73.504;2023-05-11T04:29:24;100105.75;;;7.48;85.98
59487;BME280;45298;54.918;73.504;2023-05-11T04:31:53;100111.88;;;7.48;84.91
59487;BME280;45298;54.918;73.504;2023-05-11T04:34:24;100093.94;;;7.37;84.65
59487;BME280;45298;54.918;73.504;2023-05-11T04:36:54;100115.88;;;7.57;85.15
59487;BME280;45298;54.918;73.504;2023-05-11T04:39:23;100081.38;;;7.43;84.21
59487;BME280;45298;54.918;73.504;2023-05-11T04:41:52;100098.31;;;7.56;83.96
59487;BME280;45298;54.918;73.504;2023-05-11T04:44:22;100095.31;;;7.64;83.86
59487;BME280;45298;54.918;73.504;2023-05-11T04:46:55;100087.78;;;7.74;84.05
59487;BME280;45298;54.918;73.504;2023-05-11T04:49:24;100097.91;;;7.83;83.42
59487;BME280;45298;54.918;73.504;2023-05-11T04:51:53;100092.22;;;7.91;82.54
59487;BME280;45298;54.918;73.504;2023-05-11T04:54:22;100086.84;;;7.92;82.06
59487;BME280;45298;54.918;73.504;2023-05-11T04:56:51;100110.63;;;8.10;81.70
59487;BME280;45298;54.918;73.504;2023-05-11T04:59:20;100112.88;;;8.17;81.69
59487;BME280;45298;54.918;73.504;2023-05-11T05:01:49;100114.28;;;8.25;82.03
59487;BME280;45298;54.918;73.504;2023-05-11T05:04:18;100094.84;;;8.26;81.52
59487;BME280;45298;54.918;73.504;2023-05-11T05:06:47;100107.44;;;8.38;80.86
59487;BME280;45298;54.918;73.504;2023-05-11T05:09:15;100096.69;;;8.41;80.41
59487;BME280;45298;54.918;73.504;2023-05-11T05:11:44;100105.66;;;8.56;79.79
59487;BME280;45298;54.918;73.504;2023-05-11T05:14:13;100111.47;;;8.63;80.03
59487;BME280;45298;54.918;73.504;2023-05-11T05:16:42;100048.69;;;8.51;79.49
59487;BME280;45298;54.918;73.504;2023-05-11T05:19:11;100093.19;;;8.92;79.20
59487;BME280;45298;54.918;73.504;2023-05-11T05:21:40;100107.38;;;9.23;78.55
59487;BME280;45298;54.918;73.504;2023-05-11T05:24:10;100100.28;;;9.23;77.44
59487;BME280;45298;54.918;73.504;2023-05-11T05:26:39;100113.75;;;9.19;78.03
59487;BME280;45298;54.918;73.504;2023-05-11T05:29:10;100120.94;;;9.17;77.06
59487;BME280;45298;54.918;73.504;2023-05-11T05:31:40;100098.06;;;9.16;78.27
59487;BME280;45298;54.918;73.504;2023-05-11T05:34:09;100108.31;;;9.38;78.24
59487;BME280;45298;54.918;73.504;2023-05-11T05:36:39;100124.16;;;9.70;76.99
59487;BME280;45298;54.918;73.504;2023-05-11T05:39:08;100059.84;;;9.52;76.17
59487;BME280;45298;54.918;73.504;2023-05-11T05:41:39;100113.75;;;9.97;76.01
59487;BME280;45298;54.918;73.504;2023-05-11T05:44:10;100126.66;;;10.04;74.65
59487;BME280;45298;54.918;73.504;2023-05-11T05:46:39;100097.28;;;9.92;74.12
59487;BME280;45298;54.918;73.504;2023-05-11T05:49:08;100106.59;;;10.14;73.93
59487;BME280;45298;54.918;73.504;2023-05-11T05:51:37;100091.94;;;10.23;73.56
59487;BME280;45298;54.918;73.504;2023-05-11T05:54:06;100088.59;;;10.35;73.21
59487;BME280;45298;54.918;73.504;2023-05-11T05:56:35;100129.81;;;10.70;72.18
59487;BME280;45298;54.918;73.504;2023-05-11T05:59:08;100120.25;;;10.67;72.06
59487;BME280;45298;54.918;73.504;2023-05-11T06:01:39;100108.88;;;10.80;71.42
59487;BME280;45298;54.918;73.504;2023-05-11T06:04:14;100130.00;;;10.96;70.97
59487;BME280;45298;54.918;73.504;2023-05-11T06:06:43;100124.69;;;11.10;70.59
59487;BME280;45298;54.918;73.504;2023-05-11T06:09:13;100111.81;;;11.04;69.12
59487;BME280;45298;54.918;73.504;2023-05-11T06:11:42;100105.47;;;11.07;69.22
59487;BME280;45298;54.918;73.504;2023-05-11T06:14:11;100115.78;;;11.11;68.52
59487;BME280;45298;54.918;73.504;2023-05-11T06:16:41;100116.94;;;11.07;67.54
59487;BME280;45298;54.918;73.504;2023-05-11T06:19:12;100102.69;;;11.08;67.46
59487;BME280;45298;54.918;73.504;2023-05-11T06:21:40;100099.16;;;11.22;67.43
59487;BME280;45298;54.918;73.504;2023-05-11T06:24:12;100105.88;;;11.42;66.96
59487;BME280;45298;54.918;73.504;2023-05-11T06:26:42;100116.31;;;11.58;66.86
59487;BME280;45298;54.918;73.504;2023-05-11T06:29:13;100094.59;;;11.66;66.10
59487;BME280;45298;54.918;73.504;2023-05-11T06:31:44;100098.38;;;11.89;65.57
59487;BME280;45298;54.918;73.504;2023-05-11T06:34:12;100073.59;;;11.89;63.79
59487;BME280;45298;54.918;73.504;2023-05-11T06:36:41;100089.41;;;12.05;62.15
59487;BME280;45298;54.918;73.504;2023-05-11T06:39:10;100083.97;;;12.06;62.41
59487;BME280;45298;54.918;73.504;2023-05-11T06:41:39;100133.16;;;12.39;61.24
59487;BME280;45298;54.918;73.504;2023-05-11T06:44:08;100116.97;;;12.55;60.46
59487;BME280;45298;54.918;73.504;2023-05-11T06:46:37;100102.09;;;12.79;59.77
59487;BME280;45298;54.918;73.504;2023-05-11T06:49:07;100096.28;;;12.98;57.93
59487;BME280;45298;54.918;73.504;2023-05-11T06:51:36;100124.81;;;13.09;57.75
59487;BME280;45298;54.918;73.504;2023-05-11T06:54:05;100103.44;;;12.97;57.35
59487;BME280;45298;54.918;73.504;2023-05-11T06:56:36;100097.59;;;12.92;56.90
59487;BME280;45298;54.918;73.504;2023-05-11T06:59:04;100109.31;;;13.03;55.50
59487;BME280;45298;54.918;73.504;2023-05-11T07:01:36;100098.94;;;13.11;55.74
59487;BME280;45298;54.918;73.504;2023-05-11T07:04:05;100099.03;;;13.22;54.26
59487;BME280;45298;54.918;73.504;2023-05-11T07:06:33;100110.06;;;13.42;54.82
59487;BME280;45298;54.918;73.504;2023-05-11T07:09:03;100107.41;;;13.42;52.99
59487;BME280;45298;54.918;73.504;2023-05-11T07:11:31;100096.84;;;13.40;52.50
59487;BME280;45298;54.918;73.504;2023-05-11T07:14:00;100100.91;;;13.33;51.60
59487;BME280;45298;54.918;73.504;2023-05-11T07:16:29;100086.16;;;13.16;51.41
59487;BME280;45298;54.918;73.504;2023-05-11T07:18:58;100088.06;;;13.14;51.87
59487;BME280;45298;54.918;73.504;2023-05-11T07:21:27;100119.22;;;13.38;52.59
59487;BME280;45298;54.918;73.504;2023-05-11T07:23:56;100117.50;;;13.50;50.18
59487;BME280;45298;54.918;73.504;2023-05-11T07:26:25;100083.69;;;13.50;49.90
59487;BME280;45298;54.918;73.504;2023-05-11T07:28:55;100097.03;;;13.50;49.22
59487;BME280;45298;54.918;73.504;2023-05-11T07:31:24;100104.94;;;13.52;49.64
59487;BME280;45298;54.918;73.504;2023-05-11T07:33:53;100103.00;;;13.78;51.06
59487;BME280;45298;54.918;73.504;2023-05-11T07:36:21;100105.03;;;14.10;49.37
59487;BME280;45298;54.918;73.504;2023-05-11T07:38:50;100035.03;;;13.95;50.10
59487;BME280;45298;54.918;73.504;2023-05-11T07:41:21;100099.63;;;14.34;49.17
59487;BME280;45298;54.918;73.504;2023-05-11T07:43:56;100103.84;;;14.26;49.24
59487;BME280;45298;54.918;73.504;2023-05-11T07:46:30;100081.69;;;14.25;48.42
59487;BME280;45298;54.918;73.504;2023-05-11T07:48:58;100035.72;;;14.22;49.24
59487;BME280;45298;54.918;73.504;2023-05-11T07:51:43;100072.59;;;14.50;49.48
59487;BME280;45298;54.918;73.504;2023-05-11T07:54:12;100094.59;;;14.65;48.69
59487;BME280;45298;54.918;73.504;2023-05-11T07:56:41;100087.66;;;14.51;48.78
59487;BME280;45298;54.918;73.504;2023-05-11T07:59:10;100054.78;;;14.62;48.84
59487;BME280;45298;54.918;73.504;2023-05-11T08:01:39;100097.03;;;14.80;48.20
59487;BME280;45298;54.918;73.504;2023-05-11T08:04:08;100083.56;;;14.93;47.84
59487;BME280;45298;54.918;73.504;2023-05-11T08:06:37;100072.84;;;15.04;47.05
59487;BME280;45298;54.918;73.504;2023-05-11T08:09:07;100036.94;;;14.86;48.24
59487;BME280;45298;54.918;73.504;2023-05-11T08:11:36;100084.28;;;15.18;48.01
59487;BME280;45298;54.918;73.504;2023-05-11T08:14:05;100064.00;;;15.04;48.79
59487;BME280;45298;54.918;73.504;2023-05-11T08:16:34;100065.56;;;15.06;48.13
59487;BME280;45298;54.918;73.504;2023-05-11T08:19:05;100073.69;;;15.16;48.44
59487;BME280;45298;54.918;73.504;2023-05-11T08:21:33;100059.25;;;15.51;49.35
59487;BME280;45298;54.918;73.504;2023-05-11T08:24:03;100073.84;;;15.80;48.46
59487;BME280;45298;54.918;73.504;2023-05-11T08:26:32;100070.84;;;15.40;48.34
59487;BME280;45298;54.918;73.504;2023-05-11T08:29:01;100073.50;;;14.74;48.33
59487;BME280;45298;54.918;73.504;2023-05-11T08:31:31;100068.72;;;14.66;48.22
59487;BME280;45298;54.918;73.504;2023-05-11T08:34:01;100077.00;;;14.97;47.78
59487;BME280;45298;54.918;73.504;2023-05-11T08:36:34;100068.78;;;15.33;48.72
59487;BME280;45298;54.918;73.504;2023-05-11T08:39:03;100047.25;;;15.46;46.32
59487;BME280;45298;54.918;73.504;2023-05-11T08:41:33;100068.72;;;15.55;46.21
59487;BME280;45298;54.918;73.504;2023-05-11T08:44:05;100050.78;;;15.79;45.24
59487;BME280;45298;54.918;73.504;2023-05-11T08:46:38;100063.34;;;15.67;45.76
59487;BME280;45298;54.918;73.504;2023-05-11T08:49:08;100072.19;;;15.46;46.75
59487;BME280;45298;54.918;73.504;2023-05-11T08:51:37;100074.56;;;15.17;47.10
59487;BME280;45298;54.918;73.504;2023-05-11T08:54:06;100087.47;;;15.00;47.99
59487;BME280;45298;54.918;73.504;2023-05-11T08:56:36;100093.91;;;14.86;47.56
59487;BME280;45298;54.918;73.504;2023-05-11T08:59:06;100058.81;;;14.91;46.41
59487;BME280;45298;54.918;73.504;2023-05-11T09:01:35;100072.13;;;15.02;47.20
59487;BME280;45298;54.918;73.504;2023-05-11T09:04:05;100085.69;;;15.22;45.47
59487;BME280;45298;54.918;73.504;2023-05-11T09:06:35;100071.88;;;15.17;47.16
59487;BME280;45298;54.918;73.504;2023-05-11T09:09:05;100086.94;;;15.06;45.95
59487;BME280;45298;54.918;73.504;2023-05-11T09:11:34;100045.22;;;14.71;46.97
59487;BME280;45298;54.918;73.504;2023-05-11T09:14:03;100032.94;;;14.57;46.71
59487;BME280;45298;54.918;73.504;2023-05-11T09:16:32;100075.66;;;14.91;47.21
59487;BME280;45298;54.918;73.504;2023-05-11T09:19:04;100086.72;;;14.87;46.73
59487;BME280;45298;54.918;73.504;2023-05-11T09:21:37;100079.09;;;14.71;47.82
59487;BME280;45298;54.918;73.504;2023-05-11T09:24:06;100082.91;;;14.55;47.09
59487;BME280;45298;54.918;73.504;2023-05-11T09:26:38;100099.78;;;14.56;47.14
59487;BME280;45298;54.918;73.504;2023-05-11T09:29:07;100079.19;;;14.69;46.34
59487;BME280;45298;54.918;73.504;2023-05-11T09:31:41;100077.97;;;15.07;44.53
59487;BME280;45298;54.918;73.504;2023-05-11T09:34:21;100057.38;;;15.31;44.48
59487;BME280;45298;54.918;73.504;2023-05-11T09:36:54;100071.28;;;15.57;44.40
59487;BME280;45298;54.918;73.504;2023-05-11T09:39:34;100075.34;;;15.73;44.51
59487;BME280;45298;54.918;73.504;2023-05-11T09:42:23;100076.38;;;15.93;43.35
59487;BME280;45298;54.918;73.504;2023-05-11T09:44:52;100068.91;;;15.86;43.89
59487;BME280;45298;54.918;73.504;2023-05-11T09:47:21;100048.66;;;15.61;44.30
59487;BME280;45298;54.918;73.504;2023-05-11T09:49:50;100061.00;;;15.74;43.44
59487;BME280;45298;54.918;73.504;2023-05-11T09:52:19;100071.66;;;15.85;43.82
59487;BME280;45298;54.918;73.504;2023-05-11T09:54:51;100079.19;;;16.12;42.84
59487;BME280;45298;54.918;73.504;2023-05-11T09:57:27;100083.03;;;16.41;42.24
59487;BME280;45298;54.918;73.504;2023-05-11T09:59:58;100086.38;;;16.54;42.45
59487;BME280;45298;54.918;73.504;2023-05-11T10:02:30;100078.81;;;16.69;42.04
59487;BME280;45298;54.918;73.504;2023-05-11T10:05:00;100065.03;;;16.74;43.11
59487;BME280;45298;54.918;73.504;2023-05-11T10:07:38;100049.88;;;16.53;40.77
59487;BME280;45298;54.918;73.504;2023-05-11T10:10:08;100055.19;;;16.22;40.56
59487;BME280;45298;54.918;73.504;2023-05-11T10:12:38;100064.97;;;16.12;41.68
59487;BME280;45298;54.918;73.504;2023-05-11T10:15:09;100085.00;;;15.96;42.15
59487;BME280;45298;54.918;73.504;2023-05-11T10:17:40;100059.09;;;15.97;41.53
59487;BME280;45298;54.918;73.504;2023-05-11T10:20:12;100049.63;;;15.93;41.96
59487;BME280;45298;54.918;73.504;2023-05-11T10:22:42;100047.41;;;15.77;42.43
59487;BME280;45298;54.918;73.504;2023-05-11T10:25:13;100066.56;;;15.82;42.30
59487;BME280;45298;54.918;73.504;2023-05-11T10:27:43;100065.97;;;15.78;41.64
59487;BME280;45298;54.918;73.504;2023-05-11T10:30:13;100068.22;;;15.62;41.36
59487;BME280;45298;54.918;73.504;2023-05-11T10:32:44;100070.09;;;15.50;41.93
59487;BME280;45298;54.918;73.504;2023-05-11T10:35:16;100056.53;;;15.30;42.13
59487;BME280;45298;54.918;73.504;2023-05-11T10:37:45;100051.69;;;15.24;42.88
59487;BME280;45298;54.918;73.504;2023-05-11T10:40:15;100007.53;;;15.08;42.78
59487;BME280;45298;54.918;73.504;2023-05-11T10:45:51;100068.91;;;15.75;40.73
59487;BME280;45298;54.918;73.504;2023-05-11T10:49:01;100068.78;;;15.77;41.41
59487;BME280;45298;54.918;73.504;2023-05-11T10:54:49;100049.59;;;16.04;40.21
59487;BME280;45298;54.918;73.504;2023-05-11T10:57:43;100068.66;;;16.42;40.03
59487;BME280;45298;54.918;73.504;2023-05-11T11:03:33;100057.19;;;16.51;36.99
59487;BME280;45298;54.918;73.504;2023-05-11T11:06:03;100058.72;;;16.54;38.23
59487;BME280;45298;54.918;73.504;2023-05-11T11:08:55;100067.25;;;16.69;36.12
59487;BME280;45298;54.918;73.504;2023-05-11T11:14:02;100037.59;;;16.91;37.81
59487;BME280;45298;54.918;73.504;2023-05-11T11:16:33;100039.91;;;17.06;36.13
59487;BME280;45298;54.918;73.504;2023-05-11T11:21:59;100002.63;;;16.93;35.34
59487;BME280;45298;54.918;73.504;2023-05-11T11:24:50;100067.03;;;17.22;34.21
59487;BME280;45298;54.918;73.504;2023-05-11T11:30:27;100052.78;;;17.12;32.65
59487;BME280;45298;54.918;73.504;2023-05-11T11:38:11;100058.00;;;17.33;33.46
59487;BME280;45298;54.918;73.504;2023-05-11T11:40:48;99993.91;;;17.01;33.32
59487;BME280;45298;54.918;73.504;2023-05-11T11:43:22;100066.78;;;17.35;32.80
59487;BME280;45298;54.918;73.504;2023-05-11T11:45:59;100035.13;;;17.10;33.17
59487;BME280;45298;54.918;73.504;2023-05-11T11:48:36;100056.03;;;17.26;33.48
59487;BME280;45298;54.918;73.504;2023-05-11T11:51:07;100040.75;;;17.06;32.24
59487;BME280;45298;54.918;73.504;2023-05-11T12:01:17;100042.69;;;16.95;31.77
59487;BME280;45298;54.918;73.504;2023-05-11T12:03:52;100036.16;;;16.87;31.87
59487;BME280;45298;54.918;73.504;2023-05-11T12:06:40;100065.78;;;16.86;32.51
59487;BME280;45298;54.918;73.504;2023-05-11T12:09:16;100054.16;;;16.75;32.13
59487;BME280;45298;54.918;73.504;2023-05-11T12:11:45;100044.84;;;16.70;31.33
59487;BME280;45298;54.918;73.504;2023-05-11T12:14:17;100003.59;;;16.41;31.82
59487;BME280;45298;54.918;73.504;2023-05-11T12:17:02;100057.53;;;16.68;31.24
59487;BME280;45298;54.918;73.504;2023-05-11T12:19:31;100053.28;;;16.65;30.89
59487;BME280;45298;54.918;73.504;2023-05-11T12:21:59;100004.97;;;16.36;32.34
59487;BME280;45298;54.918;73.504;2023-05-11T12:24:28;100065.56;;;16.68;31.65
59487;BME280;45298;54.918;73.504;2023-05-11T12:26:57;100041.13;;;16.51;31.81
59487;BME280;45298;54.918;73.504;2023-05-11T12:29:30;100075.56;;;16.66;30.58
59487;BME280;45298;54.918;73.504;2023-05-11T12:31:59;100054.50;;;16.51;30.71
59487;BME280;45298;54.918;73.504;2023-05-11T12:34:28;100053.22;;;16.45;30.81
59487;BME280;45298;54.918;73.504;2023-05-11T12:36:58;100034.13;;;16.39;30.59
59487;BME280;45298;54.918;73.504;2023-05-11T12:39:28;100067.03;;;16.51;30.05
59487;BME280;45298;54.918;73.504;2023-05-11T12:41:57;100077.88;;;16.49;30.92
59487;BME280;45298;54.918;73.504;2023-05-11T12:44:26;100087.03;;;16.46;30.77
59487;BME280;45298;54.918;73.504;2023-05-11T12:46:55;100068.94;;;16.39;30.66
59487;BME280;45298;54.918;73.504;2023-05-11T12:49:24;100046.16;;;16.23;30.55
59487;BME280;45298;54.918;73.504;2023-05-11T12:54:49;100031.84;;;16.03;30.51
59487;BME280;45298;54.918;73.504;2023-05-11T12:57:25;100068.69;;;16.21;31.36
59487;BME280;45298;54.918;73.504;2023-05-11T13:00:14;100066.69;;;16.13;30.72
59487;BME280;45298;54.918;73.504;2023-05-11T13:02:53;100062.56;;;16.09;31.70
59487;BME280;45298;54.918;73.504;2023-05-11T13:05:24;100055.19;;;16.01;30.40
59487;BME280;45298;54.918;73.504;2023-05-11T13:07:58;100053.91;;;15.95;29.91
59487;BME280;45298;54.918;73.504;2023-05-11T13:10:27;100051.47;;;15.81;30.41
59487;BME280;45298;54.918;73.504;2023-05-11T13:12:56;100078.94;;;15.94;30.28
59487;BME280;45298;54.918;73.504;2023-05-11T13:15:26;100078.47;;;15.89;29.62
59487;BME280;45298;54.918;73.504;2023-05-11T13:18:04;100071.56;;;15.75;29.43
59487;BME280;45298;54.918;73.504;2023-05-11T13:20:33;100067.72;;;15.68;29.34
59487;BME280;45298;54.918;73.504;2023-05-11T13:23:04;100067.25;;;15.63;29.68
59487;BME280;45298;54.918;73.504;2023-05-11T13:25:55;100055.03;;;15.49;29.86
59487;BME280;45298;54.918;73.504;2023-05-11T13:28:23;100040.25;;;15.33;30.45
59487;BME280;45298;54.918;73.504;2023-05-11T13:30:59;100080.94;;;15.48;30.28
59487;BME280;45298;54.918;73.504;2023-05-11T13:33:29;100083.13;;;15.43;30.78
59487;BME280;45298;54.918;73.504;2023-05-11T13:35:58;100087.25;;;15.36;29.96
59487;BME280;45298;54.918;73.504;2023-05-11T13:38:27;99966.59;;;14.53;30.52
59487;BME280;45298;54.918;73.504;2023-05-11T13:40:56;100089.72;;;15.28;30.15
59487;BME280;45298;54.918;73.504;2023-05-11T13:43:25;100070.44;;;15.13;29.42
59487;BME280;45298;54.918;73.504;2023-05-11T13:45:54;100070.81;;;15.08;29.43
59487;BME280;45298;54.918;73.504;2023-05-11T13:48:23;100088.16;;;15.14;30.41